Time;durP1;ratioP1;P1;durP2;ratioP2;P2;SDS_P1;SDS_P2;PMS_P1;PMS_P2;Temp;Humidity;BMP_temperature;BMP_pressure;BME280_temperature;BME280_humidity;BME280_pressure;Samples;Min_cycle;Max_cycle;Signal;HPM_P1;HPM_P2
2024/01/26 00:01:05;;;;;;;0.20;0.10;;;;;;;26.47;57.14;99376.53;7394630;19;20010;-58
2024/01/26 00:03:31;;;;;;;0.10;0.10;;;;;;;27.20;53.43;99371.34;7395524;19;20017;-58
2024/01/26 00:05:57;;;;;;;0.20;0.10;;;;;;;26.90;56.64;99364.16;7393872;19;20044;-58
2024/01/26 00:08:23;;;;;;;0.20;0.10;;;;;;;27.15;55.97;99355.28;7398943;19;20463;-58
2024/01/26 00:10:49;;;;;;;0.10;0.05;;;;;;;28.18;53.35;99360.56;7393963;19;20007;-58
2024/01/26 00:13:15;;;;;;;0.38;0.20;;;;;;;28.03;53.77;99352.34;7393791;19;20038;-58
2024/01/26 00:15:46;;;;;;;0.10;0.10;;;;;;;28.54;51.25;99337.28;7394670;19;20487;-58
2024/01/26 00:18:12;;;;;;;0.10;0.10;;;;;;;27.26;55.20;99339.59;7398379;19;20760;-58
2024/01/26 00:20:38;;;;;;;0.30;0.20;;;;;;;26.68;59.61;99339.59;7394886;19;20362;-58
2024/01/26 00:23:04;;;;;;;0.40;0.20;;;;;;;26.60;60.02;99330.41;7393838;19;20015;-58
2024/01/26 00:25:30;;;;;;;0.10;0.00;;;;;;;26.71;60.49;99337.63;7394882;19;20014;-58
2024/01/26 00:27:57;;;;;;;0.10;0.10;;;;;;;26.76;60.71;99325.94;7395980;19;20031;-58
2024/01/26 00:30:23;;;;;;;0.32;0.17;;;;;;;27.65;57.64;99330.34;7394310;19;20030;-55
2024/01/26 00:32:49;;;;;;;0.00;0.00;;;;;;;27.76;56.87;99331.81;7393616;19;20019;-55
2024/01/26 00:35:15;;;;;;;0.10;0.00;;;;;;;28.44;54.93;99339.47;7393948;19;20344;-55
2024/01/26 00:37:41;;;;;;;0.38;0.22;;;;;;;28.23;54.22;99330.84;7397335;19;20018;-55
2024/01/26 00:40:08;;;;;;;0.52;0.43;;;;;;;29.25;51.16;99333.44;7394175;19;20006;-54
2024/01/26 00:42:34;;;;;;;0.28;0.20;;;;;;;28.42;53.49;99330.72;7393391;19;20014;-55
2024/01/26 00:45:00;;;;;;;0.20;0.10;;;;;;;29.05;51.59;99338.56;7392574;19;20010;-55
2024/01/26 00:47:26;;;;;;;0.10;0.10;;;;;;;28.70;51.86;99328.28;7394331;19;20455;-54
2024/01/26 00:49:52;;;;;;;0.22;0.00;;;;;;;29.43;50.50;99308.78;7393622;19;20091;-55
2024/01/26 00:52:19;;;;;;;0.10;0.00;;;;;;;32.27;44.60;99311.03;7392928;19;20022;-54
2024/01/26 00:54:45;;;;;;;0.10;0.00;;;;;;;29.17;48.93;99309.97;7392327;19;20084;-55
2024/01/26 00:57:11;;;;;;;1.08;0.20;;;;;;;28.14;52.28;99316.59;7397409;19;20074;-55
2024/01/26 00:59:37;;;;;;;0.10;0.10;;;;;;;27.53;54.09;99318.03;7395610;19;20010;-55
2024/01/26 01:02:04;;;;;;;0.30;0.20;;;;;;;27.32;56.08;99322.88;7393489;19;20011;-55
2024/01/26 01:04:31;;;;;;;0.10;0.00;;;;;;;27.93;54.65;99307.94;7393011;19;20062;-55
2024/01/26 01:06:58;;;;;;;0.13;0.13;;;;;;;28.58;53.02;99313.16;7392147;19;20007;-55
2024/01/26 01:09:24;;;;;;;0.52;0.30;;;;;;;30.65;48.01;99306.25;7393116;19;20025;-55
2024/01/26 01:11:50;;;;;;;0.20;0.10;;;;;;;31.26;45.50;99316.25;7392155;19;20011;-55
2024/01/26 01:14:18;;;;;;;0.13;0.10;;;;;;;31.72;44.77;99303.72;7392679;19;20515;-55
2024/01/26 01:16:45;;;;;;;0.73;0.30;;;;;;;31.27;44.59;99303.38;7393876;19;20033;-55
2024/01/26 01:19:11;;;;;;;0.20;0.17;;;;;;;28.87;48.83;99313.69;7391217;19;20014;-55
2024/01/26 01:21:37;;;;;;;0.10;0.10;;;;;;;28.70;51.09;99313.97;7391191;19;20007;-55
2024/01/26 01:24:04;;;;;;;0.88;0.10;;;;;;;28.34;51.59;99327.31;7392961;19;20010;-55
2024/01/26 01:26:30;;;;;;;0.10;0.10;;;;;;;28.09;53.49;99321.28;7393882;19;20046;-55
2024/01/26 01:28:56;;;;;;;0.10;0.03;;;;;;;30.41;48.63;99327.78;7391995;19;20014;-55
2024/01/26 01:31:22;;;;;;;0.10;0.10;;;;;;;28.85;50.51;99328.63;7391291;19;20014;-55
2024/01/26 01:33:48;;;;;;;0.15;0.10;;;;;;;28.27;51.24;99325.41;7392983;19;20074;-55
2024/01/26 01:36:14;;;;;;;0.20;0.10;;;;;;;30.90;46.69;99314.94;7391988;19;20355;-55
2024/01/26 01:38:40;;;;;;;0.10;0.10;;;;;;;30.66;45.56;99319.25;7391940;19;20015;-55
2024/01/26 01:41:06;;;;;;;0.00;0.00;;;;;;;30.18;45.25;99299.06;7392232;19;20009;-54
2024/01/26 01:43:32;;;;;;;0.10;0.00;;;;;;;27.92;50.08;99294.97;7392736;19;20478;-54
2024/01/26 01:45:59;;;;;;;0.20;0.20;;;;;;;29.95;46.51;99294.84;7391258;19;20471;-55
2024/01/26 01:48:26;;;;;;;0.10;0.00;;;;;;;28.89;48.07;99283.00;7395626;19;20010;-55
2024/01/26 01:50:52;;;;;;;0.10;0.10;;;;;;;29.70;45.99;99288.97;7390765;19;20488;-55
2024/01/26 01:53:18;;;;;;;0.30;0.15;;;;;;;29.85;45.69;99276.25;7391577;19;20351;-55
2024/01/26 01:55:45;;;;;;;0.00;0.00;;;;;;;28.75;47.26;99269.88;7393504;19;20463;-55
2024/01/26 01:58:12;;;;;;;0.00;0.00;;;;;;;28.62;47.51;99271.19;7390684;19;20015;-55
2024/01/26 02:00:38;;;;;;;0.00;0.00;;;;;;;28.00;48.66;99273.44;7403719;19;20014;-55
2024/01/26 02:03:04;;;;;;;0.00;0.00;;;;;;;28.06;48.84;99273.84;7398383;19;20467;-54
2024/01/26 02:05:30;;;;;;;0.10;0.10;;;;;;;27.76;49.44;99280.31;7398026;19;20014;-54
2024/01/26 02:07:56;;;;;;;0.10;0.10;;;;;;;26.89;53.62;99279.03;7398387;19;20019;-54
2024/01/26 02:10:23;;;;;;;0.10;0.00;;;;;;;28.23;50.71;99279.31;7397482;19;20031;-54
2024/01/26 02:12:49;;;;;;;0.00;0.00;;;;;;;26.96;51.80;99275.97;7403162;19;20487;-55
2024/01/26 02:15:15;;;;;;;0.10;0.10;;;;;;;26.14;55.13;99281.22;7398849;19;20018;-55
2024/01/26 02:17:41;;;;;;;0.13;0.00;;;;;;;26.10;56.44;99283.75;7398163;19;20097;-55
2024/01/26 02:20:09;;;;;;;0.00;0.00;;;;;;;25.31;57.27;99271.84;7398474;19;20020;-55
2024/01/26 02:22:37;;;;;;;0.10;0.00;;;;;;;24.27;67.76;99274.66;7400411;19;20035;-54
2024/01/26 02:25:05;;;;;;;0.00;0.00;;;;;;;24.88;66.50;99269.78;7396898;19;20022;-54
2024/01/26 02:27:33;;;;;;;0.10;0.00;;;;;;;26.17;60.30;99274.31;7398313;19;20031;-54
2024/01/26 02:29:59;;;;;;;0.10;0.10;;;;;;;25.86;59.76;99279.03;7398446;19;20006;-54
2024/01/26 02:32:25;;;;;;;0.10;0.00;;;;;;;27.73;53.98;99264.34;7400277;19;20010;-54
2024/01/26 02:34:52;;;;;;;2.92;0.65;;;;;;;27.85;52.04;99273.03;7396062;19;20014;-54
2024/01/26 02:37:18;;;;;;;0.10;0.08;;;;;;;28.39;50.21;99274.66;7397183;19;20014;-54
2024/01/26 02:39:44;;;;;;;0.10;0.00;;;;;;;28.16;49.17;99268.03;7396985;19;20007;-55
2024/01/26 02:42:10;;;;;;;0.10;0.10;;;;;;;27.62;50.56;99285.78;7399672;19;20455;-54
2024/01/26 02:44:37;;;;;;;0.73;0.30;;;;;;;27.63;50.25;99275.09;7396902;19;20066;-55
2024/01/26 02:47:03;;;;;;;0.20;0.20;;;;;;;27.74;49.95;99283.03;7396451;19;20042;-54
2024/01/26 02:49:31;;;;;;;0.38;0.20;;;;;;;27.17;50.38;99291.75;7397346;19;20022;-54
2024/01/26 02:51:57;;;;;;;0.85;0.52;;;;;;;26.81;51.73;99282.03;7399950;19;20014;-54
2024/01/26 02:54:23;;;;;;;0.10;0.10;;;;;;;24.82;57.27;99283.53;7397207;19;20014;-54
2024/01/26 02:56:49;;;;;;;0.10;0.00;;;;;;;23.84;65.16;99279.59;7400717;19;20023;-54
2024/01/26 02:59:15;;;;;;;0.32;0.10;;;;;;;22.76;76.35;99296.28;7397206;19;20034;-54
2024/01/26 03:01:41;;;;;;;0.00;0.00;;;;;;;23.38;75.47;99306.06;7398379;19;20346;-54
2024/01/26 03:04:08;;;;;;;2.28;0.85;;;;;;;24.69;66.74;99289.53;7397117;19;20018;-54
2024/01/26 03:06:34;;;;;;;0.10;0.10;;;;;;;22.95;75.38;99301.53;7395454;19;20029;-54
2024/01/26 03:09:00;;;;;;;0.30;0.30;;;;;;;24.55;66.47;99311.16;7396867;19;20014;-54
2024/01/26 03:11:39;;;;;;;0.10;0.00;;;;;;;22.97;74.93;99319.50;7396606;19;20018;-54
2024/01/26 03:14:06;;;;;;;6.78;0.57;;;;;;;22.41;81.06;99306.63;7397092;19;20015;-57
2024/01/26 03:16:33;;;;;;;0.45;0.10;;;;;;;23.41;77.61;99314.22;7394365;19;20365;-57
2024/01/26 03:18:59;;;;;;;0.28;0.13;;;;;;;25.10;64.27;99308.63;7396286;19;20340;-56
2024/01/26 03:21:26;;;;;;;0.10;0.10;;;;;;;23.76;69.06;99313.00;7397131;19;20010;-55
2024/01/26 03:23:52;;;;;;;0.25;0.10;;;;;;;23.87;67.94;99286.94;7395679;19;20494;-55
2024/01/26 03:26:18;;;;;;;1.08;0.10;;;;;;;23.09;69.78;99323.44;7397939;19;20037;-55
2024/01/26 03:28:45;;;;;;;0.73;0.52;;;;;;;24.64;61.78;99330.44;7395923;19;20104;-55
2024/01/26 03:31:11;;;;;;;3.03;0.98;;;;;;;24.58;62.00;99332.78;7397127;19;20486;-55
2024/01/26 03:33:37;;;;;;;0.10;0.00;;;;;;;24.06;63.09;99346.91;7396238;19;20014;-55
2024/01/26 03:36:03;;;;;;;0.20;0.20;;;;;;;24.20;62.81;99375.84;7395316;19;20356;-55
2024/01/26 03:38:30;;;;;;;0.17;0.13;;;;;;;23.73;63.87;99393.78;7394561;19;20010;-55
2024/01/26 03:40:56;;;;;;;0.65;0.30;;;;;;;23.96;60.82;99416.38;7393914;19;20011;-55
2024/01/26 03:43:22;;;;;;;0.13;0.13;;;;;;;24.62;56.78;99453.44;7394594;19;20014;-55
2024/01/26 03:45:48;;;;;;;0.10;0.10;;;;;;;23.28;56.06;99445.91;7395407;19;20010;-55
2024/01/26 03:48:14;;;;;;;0.20;0.20;;;;;;;22.81;56.10;99481.97;7398399;19;20104;-55
2024/01/26 03:50:40;;;;;;;1.25;0.20;;;;;;;22.67;56.08;99515.50;7394372;19;20027;-55
2024/01/26 03:53:06;;;;;;;1.10;0.30;;;;;;;23.07;54.00;99522.09;7398212;19;20475;-55
2024/01/26 03:55:32;;;;;;;0.10;0.10;;;;;;;22.45;54.08;99545.38;7396839;19;20070;-55
2024/01/26 03:57:58;;;;;;;0.90;0.75;;;;;;;22.08;54.51;99536.75;7395325;19;20014;-55
2024/01/26 04:00:24;;;;;;;0.10;0.10;;;;;;;21.60;54.67;99558.28;7394788;19;20087;-55
2024/01/26 04:02:50;;;;;;;0.63;0.10;;;;;;;21.94;53.66;99567.34;7394667;19;20014;-55
2024/01/26 04:05:16;;;;;;;0.10;0.10;;;;;;;24.30;47.77;99583.72;7398631;19;20017;-54
2024/01/26 04:07:43;;;;;;;0.10;0.00;;;;;;;22.00;51.55;99587.81;7395211;19;20490;-55
2024/01/26 04:10:09;;;;;;;0.10;0.10;;;;;;;21.48;53.63;99579.75;7394470;19;20014;-54
2024/01/26 04:12:35;;;;;;;0.10;0.10;;;;;;;20.59;55.16;99601.88;7394434;19;20014;-54
2024/01/26 04:15:01;;;;;;;3.00;0.52;;;;;;;20.18;55.34;99627.22;7393362;19;20018;-54
2024/01/26 04:17:27;;;;;;;0.10;0.10;;;;;;;19.94;57.03;99650.09;7398332;19;20015;-54
2024/01/26 04:19:53;;;;;;;0.40;0.40;;;;;;;20.57;54.82;99627.13;7392384;19;20346;-54
2024/01/26 04:22:19;;;;;;;0.10;0.10;;;;;;;20.61;54.77;99630.38;7391344;19;20006;-54
2024/01/26 04:24:46;;;;;;;1.10;0.43;;;;;;;20.90;52.96;99640.47;7393859;19;20490;-54
2024/01/26 04:27:12;;;;;;;5.05;0.57;;;;;;;22.12;49.49;99606.00;7395179;19;20468;-54
2024/01/26 04:29:38;;;;;;;0.10;0.10;;;;;;;24.64;44.57;99643.69;7393761;19;20510;-55
2024/01/26 04:32:05;;;;;;;0.10;0.10;;;;;;;25.89;40.90;99648.75;7393165;19;20013;-54
2024/01/26 04:34:31;;;;;;;0.10;0.10;;;;;;;25.43;40.60;99666.34;7391603;19;20088;-54
2024/01/26 04:36:57;;;;;;;0.10;0.10;;;;;;;25.34;38.48;99706.88;7396327;19;20015;-55
2024/01/26 04:39:23;;;;;;;0.10;0.10;;;;;;;24.90;38.58;99711.56;7391805;19;20007;-55
2024/01/26 04:41:49;;;;;;;0.10;0.10;;;;;;;22.91;40.50;99724.34;7393794;19;20007;-55
2024/01/26 04:44:15;;;;;;;0.10;0.10;;;;;;;22.97;40.14;99744.81;7393177;19;20007;-55
2024/01/26 04:46:41;;;;;;;0.10;0.10;;;;;;;23.00;40.49;99743.69;7391761;19;20472;-55
2024/01/26 04:49:08;;;;;;;0.10;0.10;;;;;;;21.93;41.72;99747.31;7396555;19;20015;-55
2024/01/26 04:51:37;;;;;;;0.10;0.10;;;;;;;21.31;43.04;99763.59;7393855;19;20047;-55
2024/01/26 04:54:04;;;;;;;0.30;0.20;;;;;;;21.07;43.40;99776.03;7392854;19;20483;-55
2024/01/26 04:56:30;;;;;;;0.63;0.40;;;;;;;20.90;43.58;99779.19;7396163;19;20360;-54
2024/01/26 04:58:56;;;;;;;0.10;0.10;;;;;;;20.76;43.67;99796.75;7395656;19;20027;-55
2024/01/26 05:01:22;;;;;;;0.10;0.10;;;;;;;19.75;45.31;99813.38;7392251;19;20034;-55
2024/01/26 05:03:48;;;;;;;0.10;0.10;;;;;;;20.97;43.42;99806.84;7392593;19;20355;-55
2024/01/26 05:06:15;;;;;;;0.10;0.10;;;;;;;21.62;42.28;99810.72;7392039;19;20015;-55
2024/01/26 05:08:41;;;;;;;0.10;0.10;;;;;;;22.70;40.89;99808.91;7393372;19;20023;-55
2024/01/26 05:11:07;;;;;;;0.52;0.20;;;;;;;22.20;40.71;99842.25;7395337;19;20018;-55
2024/01/26 05:13:33;;;;;;;0.10;0.10;;;;;;;21.30;41.32;99839.31;7393060;19;20011;-55
2024/01/26 05:15:59;;;;;;;0.10;0.10;;;;;;;20.08;43.65;99836.16;7393584;19;20022;-54
2024/01/26 05:18:28;;;;;;;0.30;0.30;;;;;;;20.01;43.09;99869.97;7393209;19;20010;-55
2024/01/26 05:20:54;;;;;;;0.10;0.10;;;;;;;19.91;43.41;99875.25;7392599;19;20010;-55
2024/01/26 05:23:20;;;;;;;0.17;0.17;;;;;;;19.56;43.75;99869.91;7392706;19;20110;-55
2024/01/26 05:25:48;;;;;;;0.30;0.30;;;;;;;19.58;43.81;99873.72;7394102;19;20022;-54
2024/01/26 05:28:14;;;;;;;0.10;0.10;;;;;;;19.35;44.61;99878.22;7391873;19;20007;-54
2024/01/26 05:30:40;;;;;;;0.52;0.30;;;;;;;19.98;43.42;99876.69;7391929;19;20067;-55
2024/01/26 05:33:06;;;;;;;12.00;0.65;;;;;;;20.07;42.84;99890.41;7392281;19;20022;-54
2024/01/26 05:35:33;;;;;;;0.10;0.10;;;;;;;20.42;42.52;99904.97;7400432;19;20006;-55
2024/01/26 05:37:59;;;;;;;0.45;0.40;;;;;;;21.28;40.70;99909.19;7398878;19;20018;-54
2024/01/26 05:40:25;;;;;;;0.60;0.38;;;;;;;19.88;42.33;99913.06;7399613;19;20353;-55
2024/01/26 05:42:51;;;;;;;4.15;0.32;;;;;;;20.19;41.83;99931.31;7399462;19;20022;-55
2024/01/26 05:45:17;;;;;;;0.10;0.10;;;;;;;21.25;40.99;99932.94;7400928;19;20025;-55
2024/01/26 05:47:43;;;;;;;1.10;0.28;;;;;;;20.29;42.16;99946.63;7401033;19;20010;-55
2024/01/26 05:50:11;;;;;;;0.30;0.30;;;;;;;20.23;42.04;99969.34;7399493;19;20471;-55
2024/01/26 05:52:37;;;;;;;0.50;0.45;;;;;;;20.18;42.21;99966.56;7399321;19;20003;-55
2024/01/26 05:55:04;;;;;;;2.00;0.25;;;;;;;19.75;42.75;99980.09;7398795;19;20405;-55
2024/01/26 05:57:30;;;;;;;0.85;0.30;;;;;;;19.31;43.19;99970.91;7400818;19;20020;-55
2024/01/26 05:59:56;;;;;;;0.10;0.10;;;;;;;19.68;43.51;99979.41;7399705;19;20025;-55
2024/01/26 06:02:22;;;;;;;0.10;0.08;;;;;;;19.90;42.71;99983.22;7399024;19;20010;-55
2024/01/26 06:04:48;;;;;;;0.10;0.10;;;;;;;22.13;40.10;99998.22;7399139;19;20473;-55
2024/01/26 06:07:14;;;;;;;2.67;0.90;;;;;;;22.73;39.20;99998.78;7395603;19;20023;-55
2024/01/26 06:09:40;;;;;;;0.10;0.08;;;;;;;22.31;38.56;100015.03;7399202;19;20035;-55
2024/01/26 06:12:06;;;;;;;0.20;0.20;;;;;;;22.23;38.80;100014.22;7397964;19;20340;-55
2024/01/26 06:14:35;;;;;;;1.58;0.40;;;;;;;22.17;38.55;100027.78;7398503;19;20467;-55
2024/01/26 06:17:02;;;;;;;0.10;0.10;;;;;;;22.55;38.07;100026.03;7398067;19;20017;-55
2024/01/26 06:19:28;;;;;;;0.10;0.10;;;;;;;24.42;35.45;100040.31;7399697;19;20014;-55
2024/01/26 06:21:54;;;;;;;0.45;0.45;;;;;;;25.20;34.15;100042.03;7398363;19;20015;-55
2024/01/26 06:24:20;;;;;;;0.10;0.10;;;;;;;24.97;33.56;100055.53;7398169;19;20467;-55
2024/01/26 06:26:46;;;;;;;1.00;0.32;;;;;;;23.36;34.49;100076.88;7399614;19;20015;-55
2024/01/26 06:29:13;;;;;;;0.20;0.20;;;;;;;24.73;33.80;100084.59;7398985;19;20482;-55
2024/01/26 06:31:39;;;;;;;0.47;0.38;;;;;;;25.95;32.69;100068.81;7397805;19;20360;-55
2024/01/26 06:34:05;;;;;;;1.63;0.63;;;;;;;26.61;31.85;100086.16;7398288;19;20014;-54
2024/01/26 06:36:31;;;;;;;3.03;0.47;;;;;;;26.64;31.49;100087.84;7398103;19;20043;-54
2024/01/26 06:38:57;;;;;;;15.70;3.53;;;;;;;26.58;31.72;100106.56;7398262;19;20093;-54
2024/01/26 06:41:24;;;;;;;0.10;0.10;;;;;;;24.38;32.99;100111.13;7397879;19;20031;-54
2024/01/26 06:43:52;;;;;;;0.52;0.50;;;;;;;23.05;34.62;100124.19;7396797;19;20025;-56
2024/01/26 06:46:23;;;;;;;4.28;0.63;;;;;;;22.75;34.82;100123.91;7393612;19;20018;-54
2024/01/26 06:48:52;;;;;;;2.90;0.97;;;;;;;22.10;35.14;100147.59;7401792;19;20026;-54
2024/01/26 06:51:19;;;;;;;0.68;0.65;;;;;;;19.49;38.63;100167.91;7396463;19;20006;-54
2024/01/26 06:53:45;;;;;;;0.10;0.10;;;;;;;19.38;38.62;100182.16;7395572;19;20011;-55
2024/01/26 06:56:11;;;;;;;23.00;1.10;;;;;;;18.89;39.02;100181.28;7399167;19;20022;-55
2024/01/26 06:58:37;;;;;;;2.72;0.47;;;;;;;19.85;38.01;100202.47;7398271;19;20011;-54
2024/01/26 07:01:03;;;;;;;0.17;0.15;;;;;;;20.98;36.50;100201.97;7397350;19;20091;-55
2024/01/26 07:03:30;;;;;;;1.83;1.33;;;;;;;20.28;36.78;100216.63;7402398;19;20044;-55
2024/01/26 07:05:56;;;;;;;1.00;0.40;;;;;;;20.29;37.18;100229.47;7395306;19;20013;-55
2024/01/26 07:08:22;;;;;;;4.25;0.75;;;;;;;20.18;37.27;100246.56;7396266;19;20329;-54
2024/01/26 07:10:48;;;;;;;9.88;1.17;;;;;;;20.04;37.13;100244.91;7396023;19;20026;-54
2024/01/26 07:13:14;;;;;;;1.02;0.30;;;;;;;19.98;37.28;100252.69;7400806;19;20030;-55
2024/01/26 07:15:40;;;;;;;0.10;0.10;;;;;;;19.97;37.26;100265.28;7396565;19;20010;-54
2024/01/26 07:18:06;;;;;;;1.08;0.57;;;;;;;20.65;36.81;100259.09;7397265;19;20019;-54
2024/01/26 07:20:32;;;;;;;0.20;0.20;;;;;;;20.55;36.60;100263.59;7396324;19;20042;-54
2024/01/26 07:22:58;;;;;;;0.50;0.50;;;;;;;20.92;36.03;100291.88;7400169;19;20002;-54
2024/01/26 07:25:24;;;;;;;1.33;1.00;;;;;;;20.51;36.71;100288.59;7396448;19;20011;-54
2024/01/26 07:27:51;;;;;;;0.68;0.68;;;;;;;20.35;36.76;100310.16;7394067;19;20382;-54
2024/01/26 07:30:18;;;;;;;0.63;0.57;;;;;;;21.06;35.72;100302.03;7393878;19;20459;-54
2024/01/26 07:32:45;;;;;;;0.30;0.30;;;;;;;20.19;36.88;100307.47;7399266;19;20011;-55
2024/01/26 07:35:11;;;;;;;0.20;0.20;;;;;;;21.29;35.59;100321.50;7395608;19;20014;-55
2024/01/26 07:37:37;;;;;;;1.38;0.65;;;;;;;20.33;36.23;100337.44;7396774;19;20017;-54
2024/01/26 07:40:04;;;;;;;0.32;0.30;;;;;;;22.42;34.74;100332.66;7396523;19;20074;-54
2024/01/26 07:42:31;;;;;;;4.85;0.73;;;;;;;20.96;35.31;100331.97;7395202;19;20010;-56
2024/01/26 07:44:57;;;;;;;7.72;2.65;;;;;;;20.99;35.76;100345.06;7398402;19;20014;-54
2024/01/26 07:47:24;;;;;;;0.13;0.10;;;;;;;20.31;36.16;100354.94;7394511;19;20011;-54
2024/01/26 07:49:50;;;;;;;2.65;0.93;;;;;;;19.73;36.80;100370.63;7395751;19;20017;-55
2024/01/26 07:52:16;;;;;;;0.32;0.32;;;;;;;19.32;37.10;100381.94;7395114;19;20038;-54
2024/01/26 07:54:42;;;;;;;0.13;0.13;;;;;;;19.00;37.47;100394.97;7395558;19;20007;-56
2024/01/26 07:57:08;;;;;;;6.95;1.00;;;;;;;18.94;37.83;100397.06;7399375;19;20011;-54
2024/01/26 07:59:35;;;;;;;0.20;0.20;;;;;;;19.32;37.36;100398.91;7395619;19;20007;-55
2024/01/26 08:02:01;;;;;;;0.20;0.20;;;;;;;19.72;36.75;100402.25;7394940;19;20017;-55
2024/01/26 08:04:27;;;;;;;0.20;0.20;;;;;;;19.15;37.36;100412.34;7394597;19;20027;-55
2024/01/26 08:06:53;;;;;;;0.52;0.52;;;;;;;18.98;37.92;100397.56;7393078;19;20022;-54
2024/01/26 08:09:19;;;;;;;0.20;0.20;;;;;;;19.01;37.73;100401.41;7397696;19;20027;-55
2024/01/26 08:11:45;;;;;;;7.28;0.43;;;;;;;20.12;36.50;100418.38;7394799;19;20010;-55
2024/01/26 08:14:11;;;;;;;2.90;1.02;;;;;;;20.17;36.45;100440.16;7395267;19;20414;-55
2024/01/26 08:16:37;;;;;;;0.13;0.13;;;;;;;19.39;37.00;100431.50;7394370;19;20429;-54
2024/01/26 08:19:03;;;;;;;2.83;0.45;;;;;;;19.18;37.18;100456.50;7392985;19;20023;-55
2024/01/26 08:21:30;;;;;;;2.20;1.55;;;;;;;20.58;36.21;100457.78;7397252;19;20035;-54
2024/01/26 08:23:56;;;;;;;1.30;0.43;;;;;;;21.18;34.72;100460.50;7395264;19;20021;-54
2024/01/26 08:26:22;;;;;;;0.30;0.30;;;;;;;19.66;36.83;100478.59;7396653;19;20007;-54
2024/01/26 08:28:48;;;;;;;0.20;0.20;;;;;;;22.28;34.12;100469.41;7394769;19;20345;-55
2024/01/26 08:31:14;;;;;;;0.20;0.20;;;;;;;19.86;36.46;100486.69;7395438;19;20023;-54
2024/01/26 08:33:40;;;;;;;0.80;0.43;;;;;;;20.26;35.88;100493.59;7393925;19;20427;-55
2024/01/26 08:36:06;;;;;;;4.47;0.45;;;;;;;20.96;35.15;100496.22;7393579;19;20011;-55
2024/01/26 08:38:33;;;;;;;0.80;0.68;;;;;;;23.21;32.61;100494.53;7394636;19;20019;-54
2024/01/26 08:40:59;;;;;;;0.13;0.13;;;;;;;22.83;33.51;100502.50;7392301;19;20018;-54
2024/01/26 08:43:25;;;;;;;4.03;0.45;;;;;;;23.47;32.77;100508.72;7395986;19;20015;-54
2024/01/26 08:45:51;;;;;;;0.10;0.10;;;;;;;23.85;32.01;100520.53;7394010;19;20013;-55
2024/01/26 08:48:17;;;;;;;0.30;0.20;;;;;;;22.15;33.52;100524.06;7395757;19;20441;-55
2024/01/26 08:50:43;;;;;;;0.40;0.40;;;;;;;21.34;34.38;100536.75;7393399;19;20014;-55
2024/01/26 08:53:10;;;;;;;0.20;0.20;;;;;;;21.04;34.84;100547.41;7393508;19;20019;-55
2024/01/26 08:55:39;;;;;;;0.55;0.50;;;;;;;21.43;34.27;100555.47;7395359;19;20017;-55
2024/01/26 08:58:06;;;;;;;0.10;0.10;;;;;;;22.64;33.49;100561.47;7393832;19;20567;-55
2024/01/26 09:00:33;;;;;;;0.28;0.28;;;;;;;21.62;33.88;100564.75;7393230;19;20017;-57
2024/01/26 09:02:59;;;;;;;9.65;0.50;;;;;;;21.27;34.52;100577.03;7392434;19;20007;-55
2024/01/26 09:05:25;;;;;;;0.55;0.55;;;;;;;21.19;34.34;100583.81;7393340;19;20046;-55
2024/01/26 09:07:51;;;;;;;0.52;0.52;;;;;;;21.27;34.27;100587.63;7395695;19;20015;-55
2024/01/26 09:10:19;;;;;;;0.95;0.47;;;;;;;20.87;34.66;100583.63;7391961;19;20049;-55
2024/01/26 09:12:45;;;;;;;3.15;0.75;;;;;;;21.22;34.49;100597.72;7392745;19;20478;-55
2024/01/26 09:15:12;;;;;;;21.08;2.15;;;;;;;21.76;33.96;100606.84;7396605;19;20483;-55
2024/01/26 09:17:38;;;;;;;0.10;0.10;;;;;;;21.06;34.76;100607.13;7394665;19;20011;-55
2024/01/26 09:20:05;;;;;;;0.40;0.40;;;;;;;19.92;36.16;100613.88;7396155;19;20019;-55
2024/01/26 09:22:32;;;;;;;0.25;0.25;;;;;;;19.06;36.96;100624.41;7393318;19;20015;-55
2024/01/26 09:24:58;;;;;;;1.92;0.60;;;;;;;19.73;36.18;100624.25;7394527;19;20523;-56
2024/01/26 09:27:25;;;;;;;0.57;0.50;;;;;;;21.11;35.69;100626.16;7398187;19;20345;-55
2024/01/26 09:29:52;;;;;;;0.32;0.32;;;;;;;25.83;31.03;100624.22;7395761;19;20044;-55
2024/01/26 09:32:18;;;;;;;9.05;0.82;;;;;;;22.34;33.12;100635.47;7394701;19;20489;-56
2024/01/26 09:34:44;;;;;;;0.28;0.28;;;;;;;23.90;32.28;100625.69;7394787;19;20011;-56
2024/01/26 09:37:11;;;;;;;0.10;0.10;;;;;;;24.67;31.49;100648.03;7393600;19;20003;-55
2024/01/26 09:39:37;;;;;;;0.20;0.20;;;;;;;25.91;30.36;100651.47;7394815;19;20015;-55
2024/01/26 09:42:05;;;;;;;0.20;0.20;;;;;;;26.78;29.04;100655.03;7393676;19;20015;-55
2024/01/26 09:44:31;;;;;;;0.20;0.20;;;;;;;22.95;32.49;100662.91;7394289;19;20010;-55
2024/01/26 09:46:58;;;;;;;1.38;0.40;;;;;;;22.58;32.91;100669.44;7392564;19;20011;-56
2024/01/26 09:49:28;;;;;;;0.98;0.25;;;;;;;23.54;32.26;100670.13;7393155;19;20350;-56
2024/01/26 09:51:55;;;;;;;0.85;0.60;;;;;;;22.83;32.72;100675.75;7392921;19;20336;-57
2024/01/26 09:54:21;;;;;;;8.77;0.50;;;;;;;22.44;33.19;100676.34;7392272;19;20020;-56
2024/01/26 09:56:48;;;;;;;7.32;1.58;;;;;;;23.16;32.65;100677.28;7395721;19;20007;-56
2024/01/26 09:59:14;;;;;;;7.95;0.60;;;;;;;23.14;32.36;100686.34;7393228;19;20470;-50
2024/01/26 10:01:41;;;;;;;1.60;0.75;;;;;;;22.07;33.27;100704.69;7389605;19;20363;-50
2024/01/26 10:04:07;;;;;;;0.85;0.60;;;;;;;20.71;34.28;100703.41;7388854;19;20070;-50
2024/01/26 10:06:34;;;;;;;3.13;0.80;;;;;;;20.46;34.78;100719.56;7387510;19;20011;-56
2024/01/26 10:09:03;;;;;;;0.68;0.43;;;;;;;22.95;33.31;100718.97;7388800;19;20372;-57
2024/01/26 10:11:31;;;;;;;0.10;0.10;;;;;;;25.13;30.79;100721.25;7388628;19;20471;-57
2024/01/26 10:13:57;;;;;;;2.38;0.57;;;;;;;25.00;30.51;100724.19;7388752;19;20459;-57
2024/01/26 10:16:23;;;;;;;0.10;0.10;;;;;;;24.44;30.66;100724.69;7389468;19;20006;-57
2024/01/26 10:18:49;;;;;;;0.30;0.30;;;;;;;26.03;29.20;100731.84;7391045;19;20011;-57
2024/01/26 10:21:16;;;;;;;20.23;0.47;;;;;;;24.38;30.65;100743.22;7392834;19;20018;-57
2024/01/26 10:23:42;;;;;;;0.47;0.25;;;;;;;24.09;30.60;100754.41;7397244;19;20010;-56
2024/01/26 10:26:11;;;;;;;0.10;0.10;;;;;;;24.47;30.11;100757.00;7399398;19;20740;-56
2024/01/26 10:28:38;;;;;;;0.10;0.10;;;;;;;26.30;29.10;100773.13;7398466;19;20041;-57
2024/01/26 10:31:05;;;;;;;0.30;0.30;;;;;;;28.28;27.54;100767.13;7398736;19;20021;-56
2024/01/26 10:33:31;;;;;;;0.52;0.20;;;;;;;28.73;26.73;100775.56;7397107;19;20463;-57
2024/01/26 10:36:00;;;;;;;0.30;0.30;;;;;;;28.27;26.56;100786.41;7397935;19;20034;-56
2024/01/26 10:38:31;;;;;;;0.20;0.20;;;;;;;28.73;26.70;100792.00;7397715;19;20015;-56
2024/01/26 10:41:04;;;;;;;8.27;0.75;;;;;;;25.70;27.40;100795.56;7397467;19;20017;-57
2024/01/26 10:43:31;;;;;;;0.10;0.10;;;;;;;22.91;30.84;100803.75;7398102;19;20472;-56
2024/01/26 10:46:00;;;;;;;5.88;2.20;;;;;;;22.86;31.42;100816.72;7397040;19;20014;-57
2024/01/26 10:48:27;;;;;;;1.35;0.70;;;;;;;23.26;31.19;100820.50;7402775;19;20010;-56
2024/01/26 10:50:54;;;;;;;7.15;0.63;;;;;;;20.67;33.84;100819.78;7397990;19;20468;-56
2024/01/26 10:53:20;;;;;;;0.10;0.10;;;;;;;21.39;33.38;100810.84;7397479;19;20022;-56
2024/01/26 10:55:49;;;;;;;3.28;0.57;;;;;;;22.81;31.88;100831.00;7397471;19;20015;-57
2024/01/26 10:58:16;;;;;;;2.15;0.60;;;;;;;22.83;32.36;100839.75;7400924;19;20018;-57
2024/01/26 11:00:42;;;;;;;0.22;0.22;;;;;;;23.05;31.58;100836.59;7396716;19;20041;-56
2024/01/26 11:03:09;;;;;;;0.90;0.80;;;;;;;20.83;34.50;100846.47;7397218;19;20022;-56
2024/01/26 11:05:35;;;;;;;1.25;0.63;;;;;;;21.47;33.60;100857.16;7396596;19;20015;-56
2024/01/26 11:08:07;;;;;;;10.68;0.40;;;;;;;21.74;33.54;100852.56;7400781;19;20450;-56
2024/01/26 11:10:35;;;;;;;0.38;0.30;;;;;;;21.20;34.18;100857.34;7397966;19;20022;-57
2024/01/26 11:13:05;;;;;;;0.40;0.32;;;;;;;21.45;34.19;100858.97;7394603;19;20014;-56
2024/01/26 11:15:34;;;;;;;4.03;1.88;;;;;;;21.63;33.67;100853.41;7395527;19;20010;-56
2024/01/26 11:18:01;;;;;;;0.50;0.20;;;;;;;21.49;33.22;100863.06;7399243;19;20070;-56
2024/01/26 11:20:31;;;;;;;0.32;0.32;;;;;;;23.24;32.07;100860.84;7395688;19;20487;-56
2024/01/26 11:23:10;;;;;;;3.33;1.35;;;;;;;22.25;32.22;100857.22;7396544;19;20042;-56
2024/01/26 11:25:49;;;;;;;1.15;1.05;;;;;;;25.65;29.69;100854.28;7397370;19;20357;-56